Emmonak Airport Emmonak US
ICAO: PAEM
IATA:
Category: Medium
Scheduled Services:

Elevation: 13 ft
TransAlt. 18000 ft.

Airport Communications:
AWOS 3:135.35
ANCHORAGE CNTR:132.5
CTAF:122.9
KENAI RDO:122.55
TWEB:177.8

PAEM Zoom In..

Runways:

(A) RW 16 length 4601 ft width 100 ft
---- / hdg 163

(B) RW 34 length 4601 ft width 100 ft
---- / hdg 343

Location; PAEM
Day. 19 / Time. 03.56 Zulu
* Altimeter: 30.13
* Temperature: 12° c. 53.6°f.
* Wind from: 210° Speed 09 kn.
Dewpoint: 08° c.
Visibility: 10 Statute Miles.
Clouds: Overcast 1900 ft.

PAEM 190356Z AUTO 21009KT 10SM OVC019 12/08 A3013 RMK AO2 SLP263 T01170083


Wind From 210°
Speed 09 kn.

 
 
jpsmedia.com for Web Design worldairports.se 2018   terms of use